createdAt,value
2023-03-27T00:03:59.812Z,1025.00
2023-03-27T00:07:59.723Z,1020.00
2023-03-27T00:11:59.702Z,1029.00
2023-03-27T00:15:59.677Z,1036.00
2023-03-27T00:19:59.606Z,1038.00
2023-03-27T00:23:59.573Z,1024.00
2023-03-27T00:27:59.553Z,1024.00
2023-03-27T00:31:59.529Z,1032.00
2023-03-27T00:35:59.478Z,1034.00
2023-03-27T00:39:59.829Z,1023.00
2023-03-27T00:43:59.359Z,1030.00
2023-03-27T00:47:59.516Z,1042.00
2023-03-27T00:51:59.307Z,1041.00
2023-03-27T00:55:59.288Z,1028.00
2023-03-27T00:59:59.261Z,1042.00
2023-03-27T01:03:59.180Z,1035.00
2023-03-27T01:08:00.994Z,1030.00
2023-03-27T01:11:59.300Z,1039.00
2023-03-27T01:15:59.369Z,1042.00
2023-03-27T01:19:59.341Z,1044.00
2023-03-27T01:24:00.785Z,1043.00
2023-03-27T01:27:59.405Z,1023.00
2023-03-27T01:31:59.359Z,1030.00
2023-03-27T01:35:59.438Z,1041.00
2023-03-27T01:39:59.428Z,1039.00
2023-03-27T01:43:59.448Z,1026.00
2023-03-27T01:47:59.467Z,1027.00
2023-03-27T01:51:59.490Z,1038.00
2023-03-27T01:55:59.537Z,1028.00
2023-03-27T02:00:17.320Z,1032.00
2023-03-27T02:04:00.540Z,1032.00
2023-03-27T02:07:59.876Z,1039.00
2023-03-27T02:11:59.470Z,1032.00
2023-03-27T02:15:59.510Z,1044.00
2023-03-27T02:19:59.393Z,1037.00
2023-03-27T02:23:59.307Z,1028.00
2023-03-27T02:27:59.278Z,1041.00
2023-03-27T02:31:59.361Z,1035.00
2023-03-27T02:35:59.283Z,1035.00
2023-03-27T02:39:59.290Z,1042.00
2023-03-27T02:43:59.325Z,1040.00
2023-03-27T02:47:59.393Z,1018.00
2023-03-27T02:51:59.364Z,1038.00
2023-03-27T02:55:59.402Z,1031.00
2023-03-27T02:59:59.417Z,1039.00
2023-03-27T03:03:59.453Z,1038.00
2023-03-27T03:07:59.478Z,1019.00
2023-03-27T03:11:59.596Z,1022.00
2023-03-27T03:15:59.576Z,1035.00
2023-03-27T03:19:59.671Z,1022.00
2023-03-27T03:23:59.698Z,1040.00
2023-03-27T03:27:59.717Z,1033.00
2023-03-27T03:31:59.729Z,1032.00
2023-03-27T03:35:59.832Z,1031.00
2023-03-27T03:39:59.859Z,1024.00
2023-03-27T03:43:59.879Z,1032.00
2023-03-27T03:47:59.991Z,1038.00
2023-03-27T03:52:03.574Z,1039.00
2023-03-27T03:56:00.013Z,1038.00
2023-03-27T03:59:59.938Z,1041.00
2023-03-27T04:03:59.910Z,1029.00
2023-03-27T04:07:59.841Z,951.00
2023-03-27T04:11:59.821Z,828.00
2023-03-27T04:15:59.836Z,771.00
2023-03-27T04:19:59.755Z,666.00
2023-03-27T04:23:59.848Z,642.00
2023-03-27T04:28:00.027Z,582.00
2023-03-27T04:32:00.136Z,602.00
2023-03-27T04:36:07.364Z,575.00
2023-03-27T04:40:01.245Z,588.00
2023-03-27T04:44:00.406Z,622.00
2023-03-27T04:48:00.333Z,639.00
2023-03-27T04:52:00.140Z,641.00
2023-03-27T04:56:00.140Z,637.00
2023-03-27T05:00:00.217Z,637.00
2023-03-27T05:04:00.328Z,642.00
2023-03-27T05:08:00.349Z,634.00
2023-03-27T05:12:00.422Z,633.00
2023-03-27T05:16:00.644Z,630.00
2023-03-27T05:20:00.696Z,634.00
2023-03-27T05:24:00.772Z,630.00
2023-03-27T05:28:01.036Z,631.00
2023-03-27T05:32:01.590Z,614.00
2023-03-27T05:36:01.186Z,613.00
2023-03-27T05:40:01.384Z,575.00
2023-03-27T05:44:01.454Z,600.00
2023-03-27T05:48:01.567Z,627.00
2023-03-27T05:52:01.680Z,626.00
2023-03-27T05:56:02.373Z,616.00
2023-03-27T06:00:01.937Z,632.00
2023-03-27T06:04:01.913Z,642.00
2023-03-27T06:08:01.868Z,654.00
2023-03-27T06:12:01.936Z,626.00
2023-03-27T06:16:01.932Z,626.00
2023-03-27T06:20:01.915Z,662.00
2023-03-27T06:24:01.888Z,765.00
2023-03-27T06:28:01.956Z,758.00
2023-03-27T06:32:01.914Z,720.00
2023-03-27T06:36:02.066Z,669.00
2023-03-27T06:40:02.293Z,572.00
2023-03-27T06:44:02.084Z,569.00
2023-03-27T06:48:16.930Z,677.00
2023-03-27T06:52:03.084Z,642.00
2023-03-27T06:56:02.083Z,664.00
2023-03-27T07:00:02.751Z,711.00
2023-03-27T07:04:02.073Z,671.00
2023-03-27T07:08:11.391Z,724.00
2023-03-27T07:12:02.923Z,743.00
2023-03-27T07:16:02.007Z,666.00
2023-03-27T07:20:02.100Z,783.00
2023-03-27T07:24:02.303Z,777.00
2023-03-27T07:28:03.702Z,772.00
2023-03-27T07:32:06.225Z,754.00
2023-03-27T07:36:03.235Z,666.00
2023-03-27T07:40:02.181Z,551.00
2023-03-27T07:44:02.117Z,565.00
2023-03-27T07:48:02.693Z,556.00
2023-03-27T07:52:02.276Z,602.00
2023-03-27T07:56:02.333Z,626.00
2023-03-27T08:00:02.323Z,623.00
2023-03-27T08:04:02.627Z,633.00
2023-03-27T08:08:02.273Z,638.00
2023-03-27T08:12:02.293Z,624.00
2023-03-27T08:16:02.341Z,628.00
2023-03-27T08:20:02.398Z,577.00
2023-03-27T08:24:02.494Z,505.00
2023-03-27T08:28:02.559Z,554.00
2023-03-27T08:32:02.679Z,549.00
2023-03-27T08:36:03.025Z,525.00
2023-03-27T08:40:03.058Z,583.00
2023-03-27T08:44:10.009Z,500.00
2023-03-27T08:48:03.163Z,544.00
2023-03-27T08:52:06.290Z,517.00
2023-03-27T08:56:02.702Z,543.00
2023-03-27T09:00:02.671Z,503.00
2023-03-27T09:04:02.802Z,498.00
2023-03-27T09:08:02.593Z,583.00
2023-03-27T09:12:02.609Z,598.00
2023-03-27T09:16:02.799Z,628.00
2023-03-27T09:20:02.971Z,659.00
2023-03-27T09:24:03.105Z,743.00
2023-03-27T09:28:03.263Z,744.00
2023-03-27T09:32:03.355Z,744.00
2023-03-27T09:36:03.569Z,501.00
2023-03-27T09:40:03.590Z,547.00
2023-03-27T09:44:03.595Z,633.00
2023-03-27T09:48:03.520Z,1314.00
2023-03-27T09:52:03.485Z,1398.00
2023-03-27T09:56:03.582Z,1486.00
2023-03-27T10:00:03.475Z,1595.00
2023-03-27T10:04:03.542Z,1686.00
2023-03-27T10:08:03.392Z,1714.00
2023-03-27T10:12:03.312Z,1738.00
2023-03-27T10:16:03.341Z,1756.00
2023-03-27T10:20:03.616Z,1574.00
2023-03-27T10:24:03.240Z,1749.00
2023-03-27T10:28:03.223Z,1575.00
2023-03-27T10:32:03.590Z,1055.00
2023-03-27T10:36:03.140Z,663.00
2023-03-27T10:40:03.135Z,590.00
2023-03-27T10:44:03.053Z,657.00
2023-03-27T10:48:03.137Z,625.00
2023-03-27T10:52:03.003Z,634.00
2023-03-27T10:56:02.952Z,730.00
2023-03-27T11:00:02.938Z,742.00
2023-03-27T11:04:02.866Z,700.00
2023-03-27T11:08:02.892Z,740.00
2023-03-27T11:12:02.804Z,739.00
2023-03-27T11:16:02.733Z,755.00
2023-03-27T11:20:02.679Z,717.00
2023-03-27T11:24:02.744Z,897.00
2023-03-27T11:28:02.638Z,846.00
2023-03-27T11:32:03.124Z,976.00
2023-03-27T11:36:02.744Z,992.00
2023-03-27T11:40:02.550Z,1052.00
2023-03-27T11:44:02.455Z,1097.00
2023-03-27T11:48:02.511Z,1128.00
2023-03-27T11:52:02.399Z,1145.00
2023-03-27T11:56:02.350Z,1139.00
2023-03-27T12:00:02.313Z,1164.00
2023-03-27T12:04:02.401Z,1183.00
2023-03-27T12:08:02.298Z,1156.00
2023-03-27T12:12:02.395Z,1166.00
2023-03-27T12:16:02.602Z,1182.00
2023-03-27T12:20:02.721Z,1174.00
2023-03-27T12:24:02.892Z,1171.00
2023-03-27T12:28:02.999Z,1173.00
2023-03-27T12:32:03.152Z,1152.00
2023-03-27T12:36:03.171Z,1162.00
2023-03-27T12:40:03.222Z,1161.00
2023-03-27T12:44:03.289Z,1164.00
2023-03-27T12:48:03.470Z,1167.00
2023-03-27T12:52:03.423Z,1172.00
2023-03-27T12:56:03.395Z,1156.00
2023-03-27T13:00:03.518Z,1151.00
2023-03-27T13:04:03.586Z,1145.00
2023-03-27T13:08:03.520Z,1153.00
2023-03-27T13:12:03.538Z,1161.00
2023-03-27T13:16:03.740Z,1163.00
2023-03-27T13:20:03.740Z,1169.00
2023-03-27T13:24:04.006Z,1186.00
2023-03-27T13:28:04.140Z,1175.00
2023-03-27T13:32:04.331Z,1181.00
2023-03-27T13:36:04.563Z,1185.00
2023-03-27T13:40:04.497Z,1185.00
2023-03-27T13:44:04.479Z,1186.00
2023-03-27T13:48:04.384Z,1175.00
2023-03-27T13:52:04.329Z,1179.00
2023-03-27T13:56:04.281Z,1182.00
2023-03-27T14:00:04.341Z,1176.00
2023-03-27T14:04:04.263Z,1175.00
2023-03-27T14:08:04.174Z,1164.00
2023-03-27T14:12:04.151Z,1167.00
2023-03-27T14:16:04.246Z,1158.00
2023-03-27T14:20:04.215Z,1149.00
2023-03-27T14:24:04.167Z,1145.00
2023-03-27T14:28:04.160Z,1137.00
2023-03-27T14:32:04.139Z,1134.00
2023-03-27T14:36:04.224Z,1143.00
2023-03-27T14:40:04.044Z,1132.00
2023-03-27T14:44:03.970Z,1128.00
2023-03-27T14:48:03.966Z,1126.00
2023-03-27T14:52:03.918Z,1113.00
2023-03-27T14:56:03.872Z,1125.00
2023-03-27T15:00:04.073Z,1111.00
2023-03-27T15:04:04.256Z,1115.00
2023-03-27T15:08:04.476Z,1115.00
2023-03-27T15:12:04.713Z,1107.00
2023-03-27T15:16:04.900Z,1113.00
2023-03-27T15:20:05.064Z,1098.00
2023-03-27T15:24:05.286Z,1111.00
2023-03-27T15:28:07.006Z,1109.00
2023-03-27T15:32:05.452Z,1088.00
2023-03-27T15:36:05.443Z,1098.00
2023-03-27T15:40:05.376Z,1096.00
2023-03-27T15:44:05.335Z,1092.00
2023-03-27T15:48:05.340Z,1071.00
2023-03-27T15:52:05.241Z,1080.00
2023-03-27T15:56:05.266Z,1087.00
2023-03-27T16:00:05.209Z,1079.00
2023-03-27T16:04:05.265Z,1088.00
2023-03-27T16:08:05.068Z,1072.00
2023-03-27T16:12:05.324Z,1062.00
2023-03-27T16:16:05.356Z,1081.00
2023-03-27T16:20:05.249Z,1059.00
2023-03-27T16:24:05.182Z,1048.00
2023-03-27T16:28:05.199Z,1050.00
2023-03-27T16:32:05.092Z,1051.00
2023-03-27T16:36:05.122Z,1049.00
2023-03-27T16:40:05.066Z,1044.00
2023-03-27T16:44:05.007Z,1028.00
2023-03-27T16:48:05.077Z,1029.00
2023-03-27T16:52:04.992Z,1022.00
2023-03-27T16:56:05.216Z,1026.00
2023-03-27T17:00:05.524Z,1009.00
2023-03-27T17:04:05.566Z,989.00
2023-03-27T17:08:07.401Z,1000.00
2023-03-27T17:12:05.978Z,983.00
2023-03-27T17:16:06.053Z,988.00
2023-03-27T17:20:06.388Z,959.00
2023-03-27T17:24:06.173Z,964.00
2023-03-27T17:28:06.206Z,964.00
2023-03-27T17:32:06.381Z,968.00
2023-03-27T17:36:06.223Z,954.00
2023-03-27T17:40:06.221Z,910.00
2023-03-27T17:44:07.533Z,921.00
2023-03-27T17:48:06.272Z,915.00
2023-03-27T17:52:06.205Z,917.00
2023-03-27T17:56:06.231Z,926.00
2023-03-27T18:00:06.500Z,934.00
2023-03-27T18:04:06.215Z,928.00
2023-03-27T18:08:06.191Z,924.00
2023-03-27T18:12:06.096Z,941.00
2023-03-27T18:16:07.133Z,913.00
2023-03-27T18:20:06.108Z,921.00
2023-03-27T18:24:06.067Z,912.00
2023-03-27T18:28:06.100Z,916.00
2023-03-27T18:32:06.065Z,946.00
2023-03-27T18:36:06.098Z,944.00
2023-03-27T18:40:06.112Z,873.00
2023-03-27T18:44:06.118Z,835.00
2023-03-27T18:48:06.161Z,788.00
2023-03-27T18:52:06.184Z,770.00
2023-03-27T18:56:06.272Z,709.00
2023-03-27T19:00:06.314Z,663.00
2023-03-27T19:04:06.457Z,658.00
2023-03-27T19:08:06.509Z,626.00
2023-03-27T19:12:06.603Z,646.00
2023-03-27T19:16:14.037Z,654.00
2023-03-27T19:20:07.567Z,661.00
2023-03-27T19:24:06.563Z,695.00
2023-03-27T19:28:06.529Z,746.00
2023-03-27T19:32:06.445Z,757.00
2023-03-27T19:36:06.855Z,772.00
2023-03-27T19:40:06.388Z,784.00
2023-03-27T19:44:06.444Z,795.00
2023-03-27T19:48:06.490Z,810.00
2023-03-27T19:52:06.766Z,833.00
2023-03-27T19:56:06.587Z,828.00
2023-03-27T20:00:06.677Z,851.00
2023-03-27T20:04:06.761Z,852.00
2023-03-27T20:08:06.824Z,867.00
2023-03-27T20:12:06.904Z,867.00
2023-03-27T20:16:06.999Z,864.00
2023-03-27T20:20:07.056Z,873.00
2023-03-27T20:24:07.190Z,877.00
2023-03-27T20:28:07.292Z,890.00
2023-03-27T20:32:08.810Z,894.00
2023-03-27T20:36:07.374Z,888.00
2023-03-27T20:40:07.519Z,900.00
2023-03-27T20:44:07.537Z,879.00
2023-03-27T20:48:07.734Z,893.00
2023-03-27T20:52:07.793Z,899.00
2023-03-27T20:56:08.039Z,860.00
2023-03-27T21:00:07.922Z,899.00
2023-03-27T21:04:07.929Z,898.00
2023-03-27T21:08:08.045Z,893.00
2023-03-27T21:12:08.148Z,895.00
2023-03-27T21:16:08.278Z,882.00
2023-03-27T21:20:08.864Z,891.00
2023-03-27T21:24:08.528Z,897.00
2023-03-27T21:28:08.641Z,884.00
2023-03-27T21:32:08.760Z,900.00
2023-03-27T21:36:08.946Z,911.00
2023-03-27T21:40:08.954Z,893.00
2023-03-27T21:44:09.109Z,910.00
2023-03-27T21:48:09.268Z,913.00
2023-03-27T21:52:09.321Z,906.00
2023-03-27T21:56:09.446Z,906.00
2023-03-27T22:00:09.606Z,917.00
2023-03-27T22:04:09.743Z,922.00
2023-03-27T22:08:09.879Z,905.00
2023-03-27T22:12:10.083Z,901.00
2023-03-27T22:16:10.311Z,920.00
2023-03-27T22:20:10.382Z,929.00
2023-03-27T22:24:10.584Z,926.00
2023-03-27T22:28:10.776Z,917.00
2023-03-27T22:32:10.955Z,926.00
2023-03-27T22:36:11.235Z,927.00
2023-03-27T22:40:11.322Z,935.00
2023-03-27T22:44:11.512Z,916.00
2023-03-27T22:48:11.682Z,928.00
2023-03-27T22:52:11.980Z,910.00
2023-03-27T22:56:12.105Z,924.00
2023-03-27T23:00:12.270Z,922.00
2023-03-27T23:04:12.500Z,931.00
2023-03-27T23:08:12.715Z,955.00
2023-03-27T23:12:12.924Z,952.00
2023-03-27T23:16:13.174Z,931.00
2023-03-27T23:20:13.298Z,944.00
2023-03-27T23:24:13.517Z,942.00
2023-03-27T23:28:13.495Z,944.00
2023-03-27T23:32:13.680Z,951.00
2023-03-27T23:36:13.579Z,945.00
2023-03-27T23:40:13.422Z,948.00
2023-03-27T23:44:13.359Z,959.00
2023-03-27T23:48:13.286Z,943.00
2023-03-27T23:52:13.301Z,939.00
2023-03-27T23:56:13.197Z,943.00
